Time;durP1;ratioP1;P1;durP2;ratioP2;P2;SDS_P1;SDS_P2;PMS_P1;PMS_P2;Temp;Humidity;BMP_temperature;BMP_pressure;BME280_temperature;BME280_humidity;BME280_pressure;Samples;Min_cycle;Max_cycle;Signal;HPM_P1;HPM_P2
2021/07/08 00:00:37;;;;;;;11.45;5.18;;;;;;;14.80;76.66;102010.25;5074366;28;20094;-60
2021/07/08 00:03:03;;;;;;;13.10;4.45;;;;;;;14.76;76.81;102019.31;5074888;28;20028;-60
2021/07/08 00:05:28;;;;;;;7.75;4.40;;;;;;;14.72;76.79;102010.59;5074404;28;20032;-60
2021/07/08 00:07:58;;;;;;;9.18;4.60;;;;;;;14.72;76.20;102012.41;5074985;28;20024;-60
2021/07/08 00:10:31;;;;;;;9.45;4.18;;;;;;;14.71;76.13;102022.19;5074293;28;20455;-63
2021/07/08 00:12:59;;;;;;;9.05;4.07;;;;;;;14.68;76.22;102017.00;5074381;28;20033;-60
2021/07/08 00:15:27;;;;;;;6.43;4.05;;;;;;;14.66;76.38;102021.50;5074266;28;20031;-60
2021/07/08 00:17:53;;;;;;;9.80;4.97;;;;;;;14.64;76.97;102025.16;5073895;28;20115;-62
2021/07/08 00:20:20;;;;;;;8.10;4.50;;;;;;;14.63;76.91;102028.75;5074290;28;20162;-61
2021/07/08 00:22:46;;;;;;;8.60;4.70;;;;;;;14.61;77.32;102026.16;5075528;28;20537;-60
2021/07/08 00:25:14;;;;;;;7.55;4.65;;;;;;;14.63;77.02;102026.06;5074496;28;20103;-60
2021/07/08 00:27:40;;;;;;;7.25;4.47;;;;;;;14.60;76.80;102021.75;5074115;28;20028;-60
2021/07/08 00:30:08;;;;;;;10.73;4.80;;;;;;;14.58;76.79;102023.63;5074388;28;20048;-60
2021/07/08 00:32:33;;;;;;;10.52;4.50;;;;;;;14.55;76.85;102015.75;5073731;28;20036;-60
2021/07/08 00:34:59;;;;;;;8.32;4.78;;;;;;;14.51;76.87;102015.00;5074205;28;20024;-60
2021/07/08 00:37:24;;;;;;;11.13;5.03;;;;;;;14.50;76.99;102013.28;5074024;28;20031;-61
2021/07/08 00:39:49;;;;;;;9.52;4.68;;;;;;;14.47;77.05;102015.22;5074274;28;20658;-60
2021/07/08 00:42:15;;;;;;;10.13;4.90;;;;;;;14.42;77.22;102018.94;5073732;28;20423;-60
2021/07/08 00:44:40;;;;;;;7.63;4.82;;;;;;;14.40;77.41;102019.94;5074123;28;20035;-60
2021/07/08 00:47:06;;;;;;;9.57;4.45;;;;;;;14.39;77.47;102018.22;5073229;28;20035;-60
2021/07/08 00:49:32;;;;;;;10.93;5.35;;;;;;;14.38;77.51;102022.66;5074012;28;20040;-60
2021/07/08 00:51:57;;;;;;;10.65;4.80;;;;;;;14.34;78.00;102018.38;5074001;28;20031;-59
2021/07/08 00:54:23;;;;;;;7.80;4.50;;;;;;;14.34;78.21;102018.38;5073325;28;20028;-60
2021/07/08 00:56:48;;;;;;;10.00;5.28;;;;;;;14.32;78.19;102030.03;5073819;28;20024;-62
2021/07/08 00:59:13;;;;;;;10.77;5.15;;;;;;;14.28;78.51;102023.13;5073681;28;20132;-60
2021/07/08 01:01:40;;;;;;;10.98;5.20;;;;;;;14.27;78.96;102027.56;5073749;28;20107;-60
2021/07/08 01:04:06;;;;;;;11.02;5.20;;;;;;;14.30;78.59;102031.91;5072950;28;20524;-60
2021/07/08 01:06:32;;;;;;;10.23;5.22;;;;;;;14.29;78.92;102031.03;5073729;28;20112;-64
2021/07/08 01:08:59;;;;;;;8.90;4.85;;;;;;;14.30;78.72;102042.56;5073429;28;20055;-60
2021/07/08 01:11:25;;;;;;;12.85;5.38;;;;;;;14.32;79.09;102035.38;5073433;28;20094;-60
2021/07/08 01:13:50;;;;;;;12.55;5.25;;;;;;;14.31;78.90;102037.19;5073218;28;20033;-60
2021/07/08 01:16:16;;;;;;;7.30;4.55;;;;;;;14.35;79.13;102044.09;5073653;28;20697;-61
2021/07/08 01:18:41;;;;;;;10.63;5.00;;;;;;;14.47;79.07;102039.19;5072791;28;20427;-60
2021/07/08 01:21:31;;;;;;;11.55;5.38;;;;;;;14.50;79.61;102045.28;5073044;28;20168;-60
2021/07/08 01:23:58;;;;;;;11.88;5.60;;;;;;;14.54;79.76;102036.22;5072939;28;20040;-62
2021/07/08 01:26:24;;;;;;;10.30;5.55;;;;;;;14.63;79.46;102036.72;5073219;28;20021;-58
2021/07/08 01:28:51;;;;;;;11.18;5.05;;;;;;;14.70;79.42;102046.25;5072927;28;20031;-60
2021/07/08 01:31:17;;;;;;;9.57;5.35;;;;;;;14.78;78.94;102052.09;5071902;28;20028;-60
2021/07/08 01:33:43;;;;;;;10.25;4.88;;;;;;;14.84;79.22;102051.00;5072757;28;20392;-60
2021/07/08 01:36:09;;;;;;;9.02;5.55;;;;;;;14.87;78.91;102054.41;5072543;28;20414;-61
2021/07/08 01:38:34;;;;;;;8.65;5.13;;;;;;;14.90;78.48;102046.25;5073193;28;20154;-59
2021/07/08 01:41:00;;;;;;;8.73;4.63;;;;;;;14.93;78.01;102055.06;5072821;28;20037;-60
2021/07/08 01:43:25;;;;;;;10.35;5.28;;;;;;;14.95;77.96;102051.38;5073217;28;20025;-63
2021/07/08 01:45:50;;;;;;;10.35;5.07;;;;;;;14.92;78.39;102054.16;5072484;28;20036;-60
2021/07/08 01:48:16;;;;;;;12.20;5.28;;;;;;;14.93;78.44;102047.91;5072765;28;20056;-60
2021/07/08 01:50:41;;;;;;;10.35;5.55;;;;;;;14.98;78.24;102050.38;5072254;28;20036;-61
2021/07/08 01:53:06;;;;;;;9.05;5.40;;;;;;;14.99;78.57;102038.78;5072720;28;20025;-60
2021/07/08 01:55:32;;;;;;;13.18;5.35;;;;;;;15.07;78.63;102044.63;5072804;28;20110;-60
2021/07/08 01:57:57;;;;;;;10.30;5.50;;;;;;;15.14;78.63;102039.88;5072768;28;20476;-60
2021/07/08 02:00:24;;;;;;;11.73;5.90;;;;;;;15.20;78.17;102043.13;5072749;28;20483;-60
2021/07/08 02:02:55;;;;;;;10.63;5.40;;;;;;;15.25;77.48;102026.94;5072106;28;20034;-60
2021/07/08 02:05:21;;;;;;;12.07;5.57;;;;;;;15.26;77.33;102027.81;5072073;28;20032;-62
2021/07/08 02:07:50;;;;;;;10.48;5.47;;;;;;;15.24;77.55;102035.88;5072691;28;20116;-58
2021/07/08 02:10:18;;;;;;;10.50;5.45;;;;;;;15.19;77.96;102027.19;5072804;28;20090;-60
2021/07/08 02:12:44;;;;;;;10.13;5.43;;;;;;;15.16;77.98;102028.22;5071967;28;20540;-60
2021/07/08 02:15:10;;;;;;;8.43;5.40;;;;;;;15.15;78.43;102022.94;5072609;28;20052;-60
2021/07/08 02:17:37;;;;;;;10.85;5.70;;;;;;;15.13;78.45;102032.81;5072044;28;20052;-62
2021/07/08 02:20:05;;;;;;;11.77;5.47;;;;;;;15.13;78.88;102023.03;5072506;28;20139;-60
2021/07/08 02:22:32;;;;;;;9.45;5.32;;;;;;;15.18;78.31;102025.47;5072396;28;20032;-59
2021/07/08 02:24:57;;;;;;;13.68;5.65;;;;;;;15.23;78.20;102026.16;5072622;28;20028;-60
2021/07/08 02:27:23;;;;;;;9.68;5.82;;;;;;;15.26;78.22;102023.34;5071745;28;20035;-60
2021/07/08 02:29:48;;;;;;;6.40;4.60;;;;;;;15.31;78.37;102032.00;5071997;28;20430;-64
2021/07/08 02:32:14;;;;;;;9.50;5.20;;;;;;;15.37;78.13;102025.50;5072227;28;20060;-60
2021/07/08 02:34:39;;;;;;;9.00;5.53;;;;;;;15.39;77.88;102034.31;5072258;28;20074;-62
2021/07/08 02:37:06;;;;;;;9.05;5.55;;;;;;;15.39;77.62;102028.97;5072016;28;20538;-60
2021/07/08 02:39:32;;;;;;;10.18;5.68;;;;;;;15.39;77.82;102026.28;5072178;28;20063;-61
2021/07/08 02:41:57;;;;;;;12.10;5.97;;;;;;;15.37;78.45;102028.16;5073715;28;20082;-60
2021/07/08 02:44:23;;;;;;;9.68;5.57;;;;;;;15.33;78.49;102027.47;5076023;28;20384;-60
2021/07/08 02:46:48;;;;;;;14.25;5.82;;;;;;;15.30;78.45;102026.72;5076303;28;20031;-60
2021/07/08 02:49:14;;;;;;;9.13;5.80;;;;;;;15.26;78.66;102020.66;5075797;28;20063;-60
2021/07/08 02:51:39;;;;;;;9.10;5.32;;;;;;;15.16;78.66;102017.53;5075837;28;20468;-60
2021/07/08 02:54:04;;;;;;;7.82;5.40;;;;;;;15.06;79.13;102024.22;5076290;28;20064;-59
2021/07/08 02:56:30;;;;;;;10.32;5.55;;;;;;;14.99;78.88;102017.44;5075888;28;20031;-62
2021/07/08 02:58:55;;;;;;;10.90;5.93;;;;;;;14.91;79.41;102020.44;5075599;28;20439;-62
2021/07/08 03:01:20;;;;;;;12.25;4.95;;;;;;;14.85;79.31;102016.25;5075985;28;20062;-59
2021/07/08 03:03:45;;;;;;;10.27;5.40;;;;;;;14.86;79.12;102025.09;5075881;28;20039;-60
2021/07/08 03:06:11;;;;;;;9.85;5.38;;;;;;;14.82;79.05;102019.06;5075310;28;20315;-60
2021/07/08 03:08:36;;;;;;;10.48;5.28;;;;;;;14.82;79.04;102026.19;5075660;28;20047;-60
2021/07/08 03:11:02;;;;;;;9.23;5.53;;;;;;;14.85;78.49;102024.25;5075567;28;20060;-60
2021/07/08 03:13:27;;;;;;;9.57;5.57;;;;;;;14.83;78.64;102023.44;5075725;28;20104;-60
2021/07/08 03:15:52;;;;;;;10.30;5.43;;;;;;;14.77;78.90;102018.41;5075423;28;20436;-64
2021/07/08 03:18:18;;;;;;;10.35;5.68;;;;;;;14.79;79.08;102021.00;5075904;28;20051;-60
2021/07/08 03:20:45;;;;;;;10.48;6.07;;;;;;;14.79;79.40;102021.00;5075221;28;20524;-60
2021/07/08 03:23:11;;;;;;;9.23;5.68;;;;;;;14.83;79.87;102017.25;5075600;28;20073;-60
2021/07/08 03:25:37;;;;;;;10.45;5.95;;;;;;;14.88;79.78;102023.25;5075689;28;20056;-60
2021/07/08 03:28:03;;;;;;;12.05;5.93;;;;;;;14.90;79.74;102024.06;5075010;28;20058;-60
2021/07/08 03:30:30;;;;;;;13.23;6.60;;;;;;;14.89;80.11;102022.31;5076397;28;20028;-63
2021/07/08 03:32:56;;;;;;;12.52;5.90;;;;;;;14.90;80.13;102029.38;5074210;28;20131;-60
2021/07/08 03:35:23;;;;;;;12.45;6.55;;;;;;;14.86;80.65;102027.75;5075265;28;20020;-60
2021/07/08 03:37:48;;;;;;;8.52;5.30;;;;;;;14.87;80.44;102030.38;5074954;28;20039;-61
2021/07/08 03:40:15;;;;;;;11.85;6.60;;;;;;;14.90;80.45;102038.25;5075089;28;20024;-60
2021/07/08 03:42:41;;;;;;;9.18;5.93;;;;;;;14.94;80.51;102032.78;5075008;28;20025;-63
2021/07/08 03:45:08;;;;;;;10.65;6.13;;;;;;;14.98;80.28;102031.72;5075231;28;20035;-60
2021/07/08 03:47:34;;;;;;;9.43;5.85;;;;;;;15.00;79.91;102035.16;5075166;28;20047;-60
2021/07/08 03:49:59;;;;;;;10.45;6.32;;;;;;;15.00;79.87;102028.03;5074377;28;20468;-61
2021/07/08 03:52:25;;;;;;;10.32;5.53;;;;;;;15.06;79.64;102029.56;5074893;28;20432;-62
2021/07/08 03:54:50;;;;;;;9.98;5.95;;;;;;;15.10;79.63;102040.97;5073910;28;20146;-60
2021/07/08 03:57:16;;;;;;;11.05;5.95;;;;;;;15.15;79.56;102041.63;5074894;28;20388;-60
2021/07/08 03:59:41;;;;;;;13.80;6.90;;;;;;;15.25;79.11;102040.28;5074641;28;20033;-62
2021/07/08 04:02:06;;;;;;;11.93;6.40;;;;;;;15.31;79.18;102045.34;5074677;28;20028;-64
2021/07/08 04:04:34;;;;;;;12.30;6.40;;;;;;;15.40;78.96;102050.25;5074926;28;20526;-63
2021/07/08 04:06:59;;;;;;;9.73;5.43;;;;;;;15.47;78.77;102047.28;5074754;28;20034;-60
2021/07/08 04:09:25;;;;;;;14.50;6.55;;;;;;;15.53;78.60;102058.56;5074251;28;20024;-60
2021/07/08 04:11:50;;;;;;;11.93;6.68;;;;;;;15.61;78.46;102046.66;5074256;28;20052;-60
2021/07/08 04:14:15;;;;;;;12.73;6.72;;;;;;;15.67;78.01;102055.25;5074758;28;20472;-60
2021/07/08 04:16:41;;;;;;;9.60;5.63;;;;;;;15.77;77.78;102044.13;5074492;28;20032;-60
2021/07/08 04:19:06;;;;;;;11.75;6.38;;;;;;;15.83;77.19;102038.53;5074735;28;20020;-60
2021/07/08 04:21:31;;;;;;;11.90;5.90;;;;;;;15.88;77.40;102049.84;5073652;28;20033;-60
2021/07/08 04:23:57;;;;;;;11.90;5.97;;;;;;;15.92;77.41;102046.13;5074046;28;20484;-60
2021/07/08 04:26:22;;;;;;;12.35;5.97;;;;;;;15.95;77.32;102047.78;5074575;28;20108;-63
2021/07/08 04:28:48;;;;;;;9.30;5.78;;;;;;;15.97;77.50;102040.53;5074454;28;20480;-60
2021/07/08 04:31:16;;;;;;;11.45;6.10;;;;;;;15.98;77.89;102050.28;5073986;28;20032;-59
2021/07/08 04:33:46;;;;;;;9.30;6.32;;;;;;;16.00;77.33;102040.41;5073899;28;20036;-60
2021/07/08 04:36:12;;;;;;;12.13;5.97;;;;;;;16.12;76.64;102039.78;5074288;28;20082;-60
2021/07/08 04:38:37;;;;;;;11.13;6.07;;;;;;;16.16;76.42;102051.19;5074020;28;20021;-60
2021/07/08 04:41:03;;;;;;;10.02;5.82;;;;;;;16.19;76.71;102049.22;5073471;28;20330;-65
2021/07/08 04:43:28;;;;;;;10.25;5.90;;;;;;;16.24;77.04;102058.81;5073684;28;20031;-63
2021/07/08 04:45:54;;;;;;;10.70;6.60;;;;;;;16.26;77.65;102057.81;5074269;28;20028;-60
2021/07/08 04:48:20;;;;;;;9.65;5.82;;;;;;;16.30;77.90;102059.38;5074037;28;20036;-61
2021/07/08 04:50:45;;;;;;;11.73;6.30;;;;;;;16.26;77.97;102059.63;5073509;28;20051;-61
2021/07/08 04:53:17;;;;;;;10.55;6.13;;;;;;;16.27;77.67;102064.88;5073257;28;20481;-59
2021/07/08 04:55:42;;;;;;;;;;;;;;;16.27;78.15;102059.53;5073890;28;20404;-64
2021/07/08 04:58:08;;;;;;;12.05;6.30;;;;;;;16.28;78.36;102069.31;5073837;28;20006;-60
2021/07/08 05:00:33;;;;;;;11.30;6.10;;;;;;;16.27;78.10;102066.72;5073855;28;20059;-60
2021/07/08 05:02:59;;;;;;;11.25;6.65;;;;;;;16.27;78.57;102069.38;5073566;28;20043;-63
2021/07/08 05:05:24;;;;;;;9.82;5.90;;;;;;;16.30;78.14;102071.88;5073028;28;20037;-60
2021/07/08 05:07:50;;;;;;;9.05;5.35;;;;;;;16.33;78.04;102067.25;5073262;28;20025;-64
2021/07/08 05:10:17;;;;;;;12.93;6.20;;;;;;;16.42;78.01;102073.06;5073008;28;20035;-61
2021/07/08 05:12:43;;;;;;;11.70;6.22;;;;;;;16.44;77.20;102073.88;5072619;28;20044;-64
2021/07/08 05:15:10;;;;;;;14.05;6.72;;;;;;;16.48;77.05;102081.69;5073296;28;20037;-60
2021/07/08 05:17:36;;;;;;;11.43;6.88;;;;;;;16.52;77.65;102083.25;5073685;28;20435;-60
2021/07/08 05:20:04;;;;;;;10.82;6.80;;;;;;;16.63;77.17;102080.03;5073175;28;20112;-60
2021/07/08 05:22:35;;;;;;;11.52;6.18;;;;;;;16.74;75.54;102089.31;5072951;28;20483;-61
2021/07/08 05:25:00;;;;;;;7.97;5.55;;;;;;;16.82;74.96;102079.09;5072520;28;20536;-59
2021/07/08 05:27:26;;;;;;;10.35;6.07;;;;;;;16.90;74.69;102079.56;5072677;28;20107;-60
2021/07/08 05:29:51;;;;;;;11.00;6.03;;;;;;;16.95;75.42;102088.25;5073071;28;20020;-61
2021/07/08 05:32:18;;;;;;;9.13;5.70;;;;;;;16.98;75.51;102093.44;5073103;28;20395;-60
2021/07/08 05:34:44;;;;;;;11.23;6.15;;;;;;;17.08;73.90;102101.00;5072100;28;20016;-61
2021/07/08 05:37:09;;;;;;;12.32;6.15;;;;;;;17.27;72.00;102103.56;5072467;28;20537;-60
2021/07/08 05:39:35;;;;;;;11.35;5.63;;;;;;;17.47;70.83;102111.41;5068297;28;20037;-60
2021/07/08 05:42:01;;;;;;;9.93;5.63;;;;;;;17.65;70.20;102122.91;5072317;28;20039;-63
2021/07/08 05:44:26;;;;;;;12.52;5.80;;;;;;;17.73;69.48;102124.31;5073186;28;20464;-61
2021/07/08 05:46:52;;;;;;;11.70;5.38;;;;;;;17.81;69.29;102124.75;5071767;28;20020;-60
2021/07/08 05:49:17;;;;;;;9.68;5.47;;;;;;;17.81;69.45;102119.41;5069325;28;20040;-64
2021/07/08 05:51:43;;;;;;;11.90;6.07;;;;;;;17.79;69.54;102132.88;5072526;28;20090;-65
2021/07/08 05:54:08;;;;;;;10.00;5.40;;;;;;;17.78;68.86;102131.16;5072719;28;20028;-62
2021/07/08 05:56:34;;;;;;;12.23;5.88;;;;;;;17.74;69.39;102128.75;5071771;28;20109;-63
2021/07/08 05:58:59;;;;;;;13.43;6.03;;;;;;;17.66;69.46;102129.13;5067839;28;20036;-64
2021/07/08 06:01:24;;;;;;;11.25;5.88;;;;;;;17.58;69.77;102128.69;5052699;28;20025;-63
2021/07/08 06:03:50;;;;;;;11.77;6.07;;;;;;;17.46;69.33;102123.03;5051151;28;20119;-62
2021/07/08 06:06:18;;;;;;;13.32;6.03;;;;;;;17.41;69.86;102129.59;5060606;28;20107;-62
2021/07/08 06:08:46;;;;;;;13.55;5.90;;;;;;;17.29;69.98;102133.78;5071890;28;20043;-65
2021/07/08 06:11:11;;;;;;;11.60;5.60;;;;;;;17.28;69.74;102135.59;5072065;28;20084;-63
2021/07/08 06:13:36;;;;;;;14.85;5.55;;;;;;;17.34;69.62;102142.44;5072427;28;20060;-62
2021/07/08 06:16:03;;;;;;;10.75;5.75;;;;;;;17.37;69.97;102142.28;5072066;28;20028;-60
2021/07/08 06:18:28;;;;;;;14.50;7.53;;;;;;;17.42;69.48;102144.72;5071722;28;20029;-63
2021/07/08 06:20:54;;;;;;;12.65;5.80;;;;;;;17.53;69.67;102155.72;5072461;28;20032;-59
2021/07/08 06:23:20;;;;;;;13.73;6.80;;;;;;;17.56;69.01;102152.88;5072286;28;20025;-64
2021/07/08 06:25:46;;;;;;;12.93;6.43;;;;;;;17.68;69.50;102143.31;5072047;28;20043;-64
2021/07/08 06:28:12;;;;;;;9.60;5.97;;;;;;;17.74;69.97;102158.22;5070857;28;20063;-58
2021/07/08 06:30:37;;;;;;;13.55;6.22;;;;;;;17.87;68.29;102156.56;5072514;28;20064;-62
2021/07/08 06:33:02;;;;;;;11.50;6.13;;;;;;;18.06;68.10;102155.63;5072185;28;20029;-62
2021/07/08 06:35:28;;;;;;;11.75;5.97;;;;;;;18.16;67.59;102156.81;5071369;28;20028;-63
2021/07/08 06:37:53;;;;;;;13.43;6.07;;;;;;;18.36;67.92;102171.75;5073063;28;20032;-61
2021/07/08 06:40:18;;;;;;;12.82;5.65;;;;;;;18.57;66.20;102171.50;5070386;28;20540;-60
2021/07/08 06:42:45;;;;;;;11.77;5.40;;;;;;;18.71;65.27;102173.38;5072104;28;20103;-61
2021/07/08 06:45:12;;;;;;;14.55;5.65;;;;;;;19.00;64.83;102174.38;5061856;28;20468;-64
2021/07/08 06:47:43;;;;;;;12.13;5.50;;;;;;;19.26;63.57;102175.53;5052222;28;20055;-62
2021/07/08 06:50:09;;;;;;;7.53;4.80;;;;;;;19.48;62.91;102182.28;5070781;28;20028;-64
2021/07/08 06:52:34;;;;;;;7.88;3.70;;;;;;;19.79;60.15;102183.91;5071832;28;20081;-63
2021/07/08 06:55:00;;;;;;;7.03;3.70;;;;;;;19.85;58.69;102182.69;5068087;28;20099;-65
2021/07/08 06:57:25;;;;;;;6.47;3.13;;;;;;;20.07;57.21;102187.56;5065324;28;20036;-62
2021/07/08 06:59:50;;;;;;;7.25;3.88;;;;;;;19.94;57.82;102192.88;5071821;28;20033;-63
2021/07/08 07:02:16;;;;;;;6.85;3.53;;;;;;;20.02;58.73;102186.16;5070207;28;20036;-64
2021/07/08 07:04:41;;;;;;;7.30;3.50;;;;;;;20.34;57.30;102192.13;5072069;28;20449;-59
2021/07/08 07:07:06;;;;;;;7.13;3.50;;;;;;;20.48;55.79;102187.69;5071069;28;20547;-64
2021/07/08 07:09:32;;;;;;;6.97;3.20;;;;;;;20.30;55.91;102193.31;5071477;28;20526;-62
2021/07/08 07:11:57;;;;;;;5.22;3.10;;;;;;;19.98;57.20;102189.00;5071803;28;20135;-61
2021/07/08 07:14:23;;;;;;;6.50;3.30;;;;;;;19.94;57.46;102178.56;5068323;28;20029;-61
2021/07/08 07:16:48;;;;;;;6.05;3.72;;;;;;;19.77;57.48;102177.78;5071773;28;20090;-63
2021/07/08 07:19:13;;;;;;;6.70;3.92;;;;;;;19.53;58.68;102172.09;5071431;28;20025;-62
2021/07/08 07:21:39;;;;;;;6.63;3.88;;;;;;;19.42;58.92;102162.00;5071574;28;20056;-61
2021/07/08 07:24:04;;;;;;;6.60;3.70;;;;;;;19.24;59.58;102165.81;5072312;28;20021;-61
2021/07/08 07:26:30;;;;;;;6.18;3.53;;;;;;;19.18;59.63;102159.00;5071232;28;20058;-61
2021/07/08 07:28:55;;;;;;;10.52;5.03;;;;;;;19.13;59.91;102170.03;5072870;28;20033;-62
2021/07/08 07:31:20;;;;;;;7.93;3.83;;;;;;;19.23;60.10;102167.63;5075691;28;20115;-64
2021/07/08 07:33:46;;;;;;;7.53;3.50;;;;;;;19.29;59.12;102169.94;5075153;28;20037;-62
2021/07/08 07:36:12;;;;;;;6.68;3.78;;;;;;;19.31;59.90;102173.41;5074624;28;20070;-62
2021/07/08 07:38:39;;;;;;;7.15;3.97;;;;;;;19.31;59.33;102176.09;5069394;28;20039;-63
2021/07/08 07:41:06;;;;;;;6.60;3.72;;;;;;;19.37;59.50;102172.16;5073562;28;20030;-62
2021/07/08 07:43:31;;;;;;;6.82;3.33;;;;;;;19.30;60.12;102177.06;5075298;28;20024;-65
2021/07/08 07:45:56;;;;;;;5.22;3.22;;;;;;;19.26;59.67;102174.63;5074557;28;20028;-63
2021/07/08 07:48:21;;;;;;;6.35;3.55;;;;;;;19.27;59.95;102179.94;5074606;28;20020;-59
2021/07/08 07:50:47;;;;;;;6.45;3.45;;;;;;;19.33;60.17;102176.00;5074363;28;20044;-61
2021/07/08 07:53:12;;;;;;;7.45;3.42;;;;;;;19.39;60.87;102183.69;5074547;28;20104;-63
2021/07/08 07:55:38;;;;;;;5.82;3.58;;;;;;;19.40;60.82;102180.06;5073662;28;20028;-60
2021/07/08 07:58:03;;;;;;;6.15;3.53;;;;;;;19.49;59.62;102176.78;5074800;28;20039;-59
2021/07/08 08:00:29;;;;;;;6.25;3.60;;;;;;;19.57;58.56;102179.00;5075114;28;20021;-63
2021/07/08 08:02:56;;;;;;;5.30;3.50;;;;;;;19.52;59.75;102182.94;5074044;28;20202;-64
2021/07/08 08:10:38;;;;;;;8.38;3.80;;;;;;;19.69;59.15;102177.38;5073066;28;20047;-63
2021/07/08 08:13:04;;;;;;;7.07;3.70;;;;;;;19.78;58.74;102176.81;5073995;28;20044;-62
2021/07/08 08:15:30;;;;;;;8.88;3.72;;;;;;;19.85;58.53;102184.50;5073816;28;20055;-61
2021/07/08 08:17:55;;;;;;;6.05;3.65;;;;;;;20.05;58.10;102180.56;5074067;28;20437;-60
2021/07/08 08:20:21;;;;;;;7.05;4.07;;;;;;;20.44;56.47;102174.44;5074040;28;20116;-58
2021/07/08 08:22:46;;;;;;;11.20;4.40;;;;;;;20.46;57.02;102171.63;5074755;28;20024;-60
2021/07/08 08:25:12;;;;;;;7.70;3.80;;;;;;;20.67;56.54;102176.59;5073722;28;20495;-60
2021/07/08 08:27:38;;;;;;;8.38;4.18;;;;;;;20.65;56.95;102173.13;5069088;28;20035;-59
2021/07/08 08:30:05;;;;;;;7.28;4.00;;;;;;;20.88;55.58;102169.78;5067614;28;20465;-61
2021/07/08 08:32:31;;;;;;;6.70;3.97;;;;;;;21.14;55.31;102160.88;5054095;28;20088;-60
2021/07/08 08:34:56;;;;;;;6.18;3.90;;;;;;;21.24;54.63;102179.00;5068187;28;20604;-61
2021/07/08 08:37:21;;;;;;;6.78;3.80;;;;;;;21.30;55.06;102183.09;5067362;28;20104;-59
2021/07/08 08:39:47;;;;;;;5.78;3.90;;;;;;;21.29;54.45;102186.75;5069483;28;20032;-60
2021/07/08 08:42:13;;;;;;;7.90;4.30;;;;;;;21.24;55.67;102192.47;5067656;28;20370;-59
2021/07/08 08:44:38;;;;;;;12.55;3.90;;;;;;;21.67;53.45;102190.47;5071239;28;20028;-59
2021/07/08 08:47:10;;;;;;;8.38;3.50;;;;;;;22.00;51.10;102187.19;5072699;28;20020;-61
2021/07/08 08:49:42;;;;;;;9.13;3.95;;;;;;;22.01;52.03;102180.84;5073532;28;20029;-61
2021/07/08 08:52:09;;;;;;;8.68;3.88;;;;;;;23.18;50.74;102178.53;5073867;28;20027;-60
2021/07/08 08:54:35;;;;;;;6.88;3.45;;;;;;;24.59;46.47;102167.31;5073326;28;20029;-60
2021/07/08 08:57:01;;;;;;;8.18;3.45;;;;;;;25.31;45.00;102168.47;5072669;28;20393;-61
2021/07/08 08:59:27;;;;;;;7.47;3.30;;;;;;;25.67;43.22;102155.41;5073746;28;20025;-60
2021/07/08 09:02:10;;;;;;;7.78;3.03;;;;;;;26.00;42.85;102150.66;5073248;28;20039;-59
2021/07/08 09:04:36;;;;;;;6.05;3.05;;;;;;;26.40;41.47;102152.47;5072954;28;20028;-60
2021/07/08 09:07:21;;;;;;;5.10;3.10;;;;;;;26.98;39.82;102165.25;5070197;28;20032;-60
2021/07/08 09:09:47;;;;;;;4.75;3.20;;;;;;;27.09;39.98;102166.94;5070009;28;20025;-61
2021/07/08 09:12:13;;;;;;;11.68;3.50;;;;;;;27.55;39.05;102167.13;5073174;28;20086;-60
2021/07/08 09:14:39;;;;;;;9.43;3.38;;;;;;;28.35;37.60;102171.19;5073246;28;20025;-60
2021/07/08 09:17:15;;;;;;;9.90;3.60;;;;;;;28.75;36.86;102170.75;5072796;28;20465;-61
2021/07/08 09:19:40;;;;;;;7.00;3.40;;;;;;;28.57;37.02;102173.47;5054259;28;20068;-60
2021/07/08 09:22:06;;;;;;;6.57;2.97;;;;;;;27.50;39.47;102180.31;5073322;28;20051;-60
2021/07/08 09:24:34;;;;;;;5.47;3.00;;;;;;;27.38;38.61;102176.03;5072894;28;20467;-60
2021/07/08 09:27:08;;;;;;;5.85;3.40;;;;;;;26.17;41.55;102181.75;5073584;28;20104;-62
2021/07/08 09:29:35;;;;;;;5.38;2.90;;;;;;;26.13;40.89;102178.44;5073210;28;20025;-59
2021/07/08 09:32:03;;;;;;;6.50;3.20;;;;;;;25.64;41.76;102177.34;5071949;28;20078;-61
2021/07/08 09:34:32;;;;;;;7.60;3.33;;;;;;;24.91;43.33;102172.75;5072769;28;20052;-62
2021/07/08 09:37:06;;;;;;;7.43;3.83;;;;;;;24.92;43.89;102165.47;5072512;28;20032;-61
2021/07/08 09:39:37;;;;;;;8.32;3.70;;;;;;;24.81;45.79;102166.38;5072463;28;20089;-61
2021/07/08 09:42:03;;;;;;;7.28;3.80;;;;;;;25.05;44.83;102181.56;5067250;28;20028;-60
2021/07/08 09:44:30;;;;;;;6.68;3.63;;;;;;;25.51;43.68;102181.16;5074146;28;20039;-62
2021/07/08 09:46:57;;;;;;;6.43;3.90;;;;;;;26.01;42.69;102177.66;5071656;28;20024;-61
2021/07/08 09:49:24;;;;;;;8.38;3.53;;;;;;;26.09;43.17;102176.13;5072868;28;20074;-59
2021/07/08 09:51:51;;;;;;;5.93;3.28;;;;;;;25.86;43.47;102179.03;5071847;28;20029;-62
2021/07/08 09:54:45;;;;;;;8.32;3.53;;;;;;;25.74;43.34;102182.84;5068710;28;20029;-60
2021/07/08 09:57:33;;;;;;;6.55;3.90;;;;;;;24.49;45.90;102191.56;5071431;28;20107;-63
2021/07/08 09:59:59;;;;;;;6.35;4.07;;;;;;;23.82;48.16;102198.78;5073174;28;20107;-62
2021/07/08 10:02:33;;;;;;;9.63;3.72;;;;;;;23.67;47.22;102204.44;5071973;28;20027;-58
2021/07/08 10:05:02;;;;;;;10.00;3.90;;;;;;;23.39;47.63;102200.34;5072734;28;20032;-61
2021/07/08 10:07:28;;;;;;;5.93;3.40;;;;;;;23.47;47.89;102206.00;5072595;28;20028;-61
2021/07/08 10:09:54;;;;;;;9.35;3.88;;;;;;;25.09;44.97;102200.13;5072217;28;20134;-59
2021/07/08 10:12:22;;;;;;;8.60;3.70;;;;;;;26.00;41.65;102203.09;5072094;28;20045;-61
2021/07/08 10:14:47;;;;;;;7.53;3.78;;;;;;;26.13;42.09;102216.44;5072917;28;20488;-61
2021/07/08 10:17:16;;;;;;;7.80;3.85;;;;;;;24.91;44.52;102217.94;5071902;28;20017;-58
2021/07/08 10:19:46;;;;;;;7.95;4.10;;;;;;;24.42;46.19;102223.72;5072273;28;20491;-61
2021/07/08 10:22:12;;;;;;;11.50;4.18;;;;;;;24.11;46.40;102226.22;5072749;28;20108;-61
2021/07/08 10:24:37;;;;;;;12.73;5.00;;;;;;;23.78;48.09;102224.34;5072283;28;20024;-63
2021/07/08 10:27:04;;;;;;;8.25;3.80;;;;;;;23.96;47.38;102222.06;5071986;28;20499;-61
2021/07/08 10:29:30;;;;;;;9.27;4.20;;;;;;;25.01;45.96;102229.72;5072047;28;20487;-59
2021/07/08 10:31:57;;;;;;;7.63;3.63;;;;;;;25.65;43.58;102233.34;5072361;28;20108;-61
2021/07/08 10:34:22;;;;;;;6.50;3.90;;;;;;;25.66;43.18;102235.06;5072036;28;20078;-59
2021/07/08 10:36:52;;;;;;;6.82;3.42;;;;;;;25.36;45.07;102247.59;5072190;28;20132;-62
2021/07/08 10:39:23;;;;;;;8.75;4.00;;;;;;;26.18;43.47;102248.63;5072516;28;20472;-59
2021/07/08 10:41:55;;;;;;;8.73;3.67;;;;;;;26.30;42.27;102241.22;5072363;28;20566;-61
2021/07/08 10:44:33;;;;;;;7.95;3.97;;;;;;;25.51;44.14;102223.69;5071727;28;20419;-62
2021/07/08 10:46:58;;;;;;;6.35;3.55;;;;;;;25.91;44.33;102228.34;5071753;28;20519;-59
2021/07/08 10:49:39;;;;;;;7.20;3.80;;;;;;;27.08;41.30;102235.06;5071844;28;20025;-59
2021/07/08 10:52:13;;;;;;;9.80;4.07;;;;;;;26.92;41.52;102246.47;5072002;28;20519;-60
2021/07/08 10:54:47;;;;;;;6.75;3.20;;;;;;;27.67;37.80;102241.28;5071887;28;20032;-58
2021/07/08 10:57:40;;;;;;;6.63;3.13;;;;;;;28.01;38.24;102237.16;5072538;28;20040;-61
2021/07/08 11:00:10;;;;;;;9.52;4.40;;;;;;;28.25;37.85;102233.88;5071856;28;20033;-63
2021/07/08 11:02:52;;;;;;;7.15;3.78;;;;;;;27.15;40.63;102237.06;5072384;28;20020;-61
2021/07/08 11:05:56;;;;;;;9.20;3.58;;;;;;;26.55;40.48;102226.28;5075359;28;20395;-59
2021/07/08 11:08:46;;;;;;;7.03;3.70;;;;;;;25.52;42.88;102207.31;5075838;28;20099;-60
2021/07/08 11:11:32;;;;;;;8.93;4.13;;;;;;;25.03;45.02;102211.50;5074908;28;20851;-61
2021/07/08 11:14:20;;;;;;;6.63;3.70;;;;;;;25.28;44.37;102204.84;5075827;28;20056;-62
2021/07/08 11:16:58;;;;;;;7.72;3.70;;;;;;;26.44;41.86;102220.97;5068915;28;20037;-61
2021/07/08 11:19:23;;;;;;;6.03;3.60;;;;;;;26.62;41.74;102202.94;5075427;28;20100;-58
2021/07/08 11:21:52;;;;;;;5.07;3.40;;;;;;;27.89;39.55;102203.81;5075451;28;20531;-60
2021/07/08 11:24:19;;;;;;;8.07;3.08;;;;;;;28.73;37.60;102210.09;5075849;28;20425;-62
2021/07/08 11:26:50;;;;;;;7.70;3.40;;;;;;;28.29;37.77;102208.09;5075137;28;20445;-59